sensor_id;sensor_type;location;lat;lon;timestamp;P1;durP1;ratioP1;P2;durP2;ratioP2
31596;SDS011;74162;50.912;6.918;2023-12-04T00:00:24;33.25;;;26.55;;
31596;SDS011;74162;50.912;6.918;2023-12-04T00:00:56;33.10;;;26.02;;
31596;SDS011;74162;50.912;6.918;2023-12-04T00:03:09;32.83;;;26.67;;
31596;SDS011;74162;50.912;6.918;2023-12-04T00:03:41;30.38;;;26.65;;
31596;SDS011;74162;50.912;6.918;2023-12-04T00:04:13;32.35;;;27.85;;
31596;SDS011;74162;50.912;6.918;2023-12-04T00:04:45;33.20;;;26.67;;
31596;SDS011;74162;50.912;6.918;2023-12-04T00:05:17;31.05;;;26.58;;
31596;SDS011;74162;50.912;6.918;2023-12-04T00:05:49;31.88;;;27.02;;
31596;SDS011;74162;50.912;6.918;2023-12-04T00:07:27;31.42;;;27.15;;
31596;SDS011;74162;50.912;6.918;2023-12-04T00:08:00;30.80;;;26.55;;
31596;SDS011;74162;50.912;6.918;2023-12-04T00:08:32;29.88;;;26.05;;
31596;SDS011;74162;50.912;6.918;2023-12-04T00:09:04;32.50;;;27.90;;
31596;SDS011;74162;50.912;6.918;2023-12-04T00:09:36;32.58;;;26.92;;
31596;SDS011;74162;50.912;6.918;2023-12-04T00:10:08;31.83;;;27.48;;
31596;SDS011;74162;50.912;6.918;2023-12-04T00:10:40;33.42;;;28.20;;
31596;SDS011;74162;50.912;6.918;2023-12-04T00:11:12;31.05;;;26.30;;
31596;SDS011;74162;50.912;6.918;2023-12-04T00:11:44;30.17;;;26.58;;
31596;SDS011;74162;50.912;6.918;2023-12-04T00:12:16;33.92;;;27.75;;
31596;SDS011;74162;50.912;6.918;2023-12-04T00:12:47;34.35;;;27.65;;
31596;SDS011;74162;50.912;6.918;2023-12-04T00:13:20;30.65;;;27.35;;
31596;SDS011;74162;50.912;6.918;2023-12-04T00:13:52;29.92;;;26.25;;
31596;SDS011;74162;50.912;6.918;2023-12-04T00:14:23;30.77;;;27.20;;
31596;SDS011;74162;50.912;6.918;2023-12-04T00:14:55;31.55;;;26.38;;
31596;SDS011;74162;50.912;6.918;2023-12-04T00:15:27;30.92;;;27.30;;
31596;SDS011;74162;50.912;6.918;2023-12-04T00:15:59;30.85;;;26.98;;
31596;SDS011;74162;50.912;6.918;2023-12-04T00:16:33;28.77;;;25.63;;
31596;SDS011;74162;50.912;6.918;2023-12-04T00:17:05;30.17;;;26.33;;
31596;SDS011;74162;50.912;6.918;2023-12-04T00:17:52;28.98;;;25.83;;
31596;SDS011;74162;50.912;6.918;2023-12-04T00:18:23;30.15;;;26.55;;
31596;SDS011;74162;50.912;6.918;2023-12-04T00:18:55;33.10;;;27.20;;
31596;SDS011;74162;50.912;6.918;2023-12-04T00:19:28;30.65;;;27.25;;
31596;SDS011;74162;50.912;6.918;2023-12-04T00:20:01;32.05;;;26.85;;
31596;SDS011;74162;50.912;6.918;2023-12-04T00:20:33;29.02;;;25.58;;
31596;SDS011;74162;50.912;6.918;2023-12-04T00:21:05;30.95;;;27.40;;
31596;SDS011;74162;50.912;6.918;2023-12-04T00:21:37;29.70;;;25.95;;
31596;SDS011;74162;50.912;6.918;2023-12-04T00:22:09;31.58;;;25.48;;
31596;SDS011;74162;50.912;6.918;2023-12-04T00:22:41;31.60;;;26.22;;
31596;SDS011;74162;50.912;6.918;2023-12-04T00:23:14;34.28;;;26.17;;
31596;SDS011;74162;50.912;6.918;2023-12-04T00:23:46;32.78;;;26.73;;
31596;SDS011;74162;50.912;6.918;2023-12-04T00:24:18;30.38;;;25.50;;
31596;SDS011;74162;50.912;6.918;2023-12-04T00:24:50;33.15;;;26.50;;
31596;SDS011;74162;50.912;6.918;2023-12-04T00:25:21;32.33;;;26.23;;
31596;SDS011;74162;50.912;6.918;2023-12-04T00:25:54;32.70;;;24.77;;
31596;SDS011;74162;50.912;6.918;2023-12-04T00:26:26;33.08;;;25.95;;
31596;SDS011;74162;50.912;6.918;2023-12-04T00:26:58;32.70;;;25.67;;
31596;SDS011;74162;50.912;6.918;2023-12-04T00:27:30;33.63;;;26.35;;
31596;SDS011;74162;50.912;6.918;2023-12-04T00:28:02;33.88;;;26.65;;
31596;SDS011;74162;50.912;6.918;2023-12-04T00:28:35;40.00;;;27.33;;
31596;SDS011;74162;50.912;6.918;2023-12-04T00:29:07;34.45;;;25.85;;
31596;SDS011;74162;50.912;6.918;2023-12-04T00:29:39;34.30;;;26.85;;
31596;SDS011;74162;50.912;6.918;2023-12-04T00:30:11;33.47;;;26.00;;
31596;SDS011;74162;50.912;6.918;2023-12-04T00:32:35;32.25;;;26.15;;
31596;SDS011;74162;50.912;6.918;2023-12-04T00:33:07;34.33;;;26.00;;
31596;SDS011;74162;50.912;6.918;2023-12-04T00:33:39;34.10;;;25.60;;
31596;SDS011;74162;50.912;6.918;2023-12-04T00:34:27;31.25;;;25.65;;
31596;SDS011;74162;50.912;6.918;2023-12-04T00:37:17;28.40;;;25.30;;
31596;SDS011;74162;50.912;6.918;2023-12-04T00:37:49;29.95;;;26.05;;
31596;SDS011;74162;50.912;6.918;2023-12-04T00:38:22;29.88;;;25.92;;
31596;SDS011;74162;50.912;6.918;2023-12-04T00:38:54;29.73;;;25.60;;
31596;SDS011;74162;50.912;6.918;2023-12-04T00:39:55;30.48;;;26.27;;
31596;SDS011;74162;50.912;6.918;2023-12-04T00:40:47;30.13;;;26.88;;
31596;SDS011;74162;50.912;6.918;2023-12-04T00:41:19;30.17;;;26.77;;
31596;SDS011;74162;50.912;6.918;2023-12-04T00:41:51;29.55;;;26.20;;
31596;SDS011;74162;50.912;6.918;2023-12-04T00:42:23;29.60;;;25.77;;
31596;SDS011;74162;50.912;6.918;2023-12-04T00:42:55;29.48;;;26.05;;
31596;SDS011;74162;50.912;6.918;2023-12-04T00:43:27;30.27;;;26.85;;
31596;SDS011;74162;50.912;6.918;2023-12-04T00:43:59;29.65;;;26.00;;
31596;SDS011;74162;50.912;6.918;2023-12-04T00:44:31;32.53;;;27.02;;
31596;SDS011;74162;50.912;6.918;2023-12-04T00:45:03;29.52;;;25.88;;
31596;SDS011;74162;50.912;6.918;2023-12-04T00:45:36;30.60;;;26.58;;
31596;SDS011;74162;50.912;6.918;2023-12-04T00:46:08;30.45;;;25.83;;
31596;SDS011;74162;50.912;6.918;2023-12-04T00:46:40;31.15;;;25.45;;
31596;SDS011;74162;50.912;6.918;2023-12-04T00:47:11;28.77;;;25.63;;
31596;SDS011;74162;50.912;6.918;2023-12-04T00:47:43;28.80;;;24.92;;
31596;SDS011;74162;50.912;6.918;2023-12-04T00:48:15;29.25;;;25.75;;
31596;SDS011;74162;50.912;6.918;2023-12-04T00:48:48;28.88;;;25.52;;
31596;SDS011;74162;50.912;6.918;2023-12-04T00:49:36;31.10;;;26.73;;
31596;SDS011;74162;50.912;6.918;2023-12-04T00:50:08;28.88;;;25.73;;
31596;SDS011;74162;50.912;6.918;2023-12-04T00:50:42;28.96;;;25.68;;
31596;SDS011;74162;50.912;6.918;2023-12-04T00:51:14;29.95;;;25.50;;
31596;SDS011;74162;50.912;6.918;2023-12-04T00:51:45;29.58;;;25.48;;
31596;SDS011;74162;50.912;6.918;2023-12-04T00:52:17;27.27;;;24.23;;
31596;SDS011;74162;50.912;6.918;2023-12-04T00:52:49;28.52;;;25.05;;
31596;SDS011;74162;50.912;6.918;2023-12-04T00:53:22;29.67;;;25.15;;
31596;SDS011;74162;50.912;6.918;2023-12-04T00:53:55;28.42;;;24.95;;
31596;SDS011;74162;50.912;6.918;2023-12-04T00:54:27;30.27;;;26.63;;
31596;SDS011;74162;50.912;6.918;2023-12-04T00:55:00;30.35;;;25.92;;
31596;SDS011;74162;50.912;6.918;2023-12-04T00:55:31;29.10;;;24.50;;
31596;SDS011;74162;50.912;6.918;2023-12-04T00:56:04;27.48;;;23.95;;
31596;SDS011;74162;50.912;6.918;2023-12-04T00:56:37;28.70;;;24.67;;
31596;SDS011;74162;50.912;6.918;2023-12-04T00:57:09;30.27;;;25.23;;
31596;SDS011;74162;50.912;6.918;2023-12-04T00:57:41;32.22;;;24.80;;
31596;SDS011;74162;50.912;6.918;2023-12-04T00:58:13;31.15;;;25.00;;
31596;SDS011;74162;50.912;6.918;2023-12-04T00:58:45;31.42;;;24.45;;
31596;SDS011;74162;50.912;6.918;2023-12-04T00:59:17;32.97;;;25.23;;
31596;SDS011;74162;50.912;6.918;2023-12-04T00:59:49;30.65;;;24.75;;
31596;SDS011;74162;50.912;6.918;2023-12-04T01:00:20;30.10;;;24.15;;
31596;SDS011;74162;50.912;6.918;2023-12-04T01:00:52;30.48;;;24.40;;
31596;SDS011;74162;50.912;6.918;2023-12-04T01:01:24;32.80;;;24.85;;
31596;SDS011;74162;50.912;6.918;2023-12-04T01:01:56;30.52;;;24.58;;
31596;SDS011;74162;50.912;6.918;2023-12-04T01:02:28;30.95;;;24.55;;
31596;SDS011;74162;50.912;6.918;2023-12-04T01:03:00;30.60;;;24.85;;
31596;SDS011;74162;50.912;6.918;2023-12-04T01:03:32;29.95;;;23.83;;
31596;SDS011;74162;50.912;6.918;2023-12-04T01:04:04;32.10;;;25.06;;
31596;SDS011;74162;50.912;6.918;2023-12-04T01:04:36;29.50;;;24.65;;
31596;SDS011;74162;50.912;6.918;2023-12-04T01:05:11;30.15;;;24.13;;
31596;SDS011;74162;50.912;6.918;2023-12-04T01:05:43;29.27;;;23.33;;
31596;SDS011;74162;50.912;6.918;2023-12-04T01:06:19;29.63;;;24.52;;
31596;SDS011;74162;50.912;6.918;2023-12-04T01:06:52;29.05;;;24.33;;
31596;SDS011;74162;50.912;6.918;2023-12-04T01:07:24;30.45;;;25.75;;
31596;SDS011;74162;50.912;6.918;2023-12-04T01:07:55;30.98;;;26.40;;
31596;SDS011;74162;50.912;6.918;2023-12-04T01:08:29;27.98;;;24.00;;
31596;SDS011;74162;50.912;6.918;2023-12-04T01:09:00;27.83;;;24.80;;
31596;SDS011;74162;50.912;6.918;2023-12-04T01:09:34;27.52;;;24.60;;
31596;SDS011;74162;50.912;6.918;2023-12-04T01:10:06;28.25;;;25.20;;
31596;SDS011;74162;50.912;6.918;2023-12-04T01:10:39;28.48;;;24.90;;
31596;SDS011;74162;50.912;6.918;2023-12-04T01:11:11;28.92;;;25.60;;
31596;SDS011;74162;50.912;6.918;2023-12-04T01:11:43;29.40;;;24.70;;
31596;SDS011;74162;50.912;6.918;2023-12-04T01:12:15;26.95;;;24.05;;
31596;SDS011;74162;50.912;6.918;2023-12-04T01:12:47;27.45;;;24.38;;
31596;SDS011;74162;50.912;6.918;2023-12-04T01:13:18;30.15;;;24.50;;
31596;SDS011;74162;50.912;6.918;2023-12-04T01:13:50;29.75;;;25.23;;
31596;SDS011;74162;50.912;6.918;2023-12-04T01:14:22;29.15;;;24.73;;
31596;SDS011;74162;50.912;6.918;2023-12-04T01:14:54;29.48;;;24.77;;
31596;SDS011;74162;50.912;6.918;2023-12-04T01:15:26;29.27;;;24.75;;
31596;SDS011;74162;50.912;6.918;2023-12-04T01:15:58;28.63;;;25.05;;
31596;SDS011;74162;50.912;6.918;2023-12-04T01:16:30;29.33;;;25.38;;
31596;SDS011;74162;50.912;6.918;2023-12-04T01:17:01;28.48;;;25.25;;
31596;SDS011;74162;50.912;6.918;2023-12-04T01:17:34;27.90;;;24.67;;
31596;SDS011;74162;50.912;6.918;2023-12-04T01:18:06;26.33;;;23.52;;
31596;SDS011;74162;50.912;6.918;2023-12-04T01:18:38;28.00;;;24.70;;
31596;SDS011;74162;50.912;6.918;2023-12-04T01:19:10;28.65;;;25.42;;
31596;SDS011;74162;50.912;6.918;2023-12-04T01:19:42;27.95;;;24.80;;
31596;SDS011;74162;50.912;6.918;2023-12-04T01:20:14;29.60;;;25.55;;
31596;SDS011;74162;50.912;6.918;2023-12-04T01:20:46;29.00;;;25.27;;
31596;SDS011;74162;50.912;6.918;2023-12-04T01:21:17;29.33;;;24.92;;
31596;SDS011;74162;50.912;6.918;2023-12-04T01:21:49;28.08;;;24.98;;
31596;SDS011;74162;50.912;6.918;2023-12-04T01:22:21;30.63;;;25.77;;
31596;SDS011;74162;50.912;6.918;2023-12-04T01:22:53;27.50;;;23.70;;
31596;SDS011;74162;50.912;6.918;2023-12-04T01:23:25;27.45;;;24.45;;
31596;SDS011;74162;50.912;6.918;2023-12-04T01:23:59;28.58;;;24.65;;
31596;SDS011;74162;50.912;6.918;2023-12-04T01:24:30;26.72;;;23.80;;
31596;SDS011;74162;50.912;6.918;2023-12-04T01:25:03;27.88;;;24.45;;
31596;SDS011;74162;50.912;6.918;2023-12-04T01:25:35;27.40;;;24.45;;
31596;SDS011;74162;50.912;6.918;2023-12-04T01:26:07;28.92;;;24.17;;
31596;SDS011;74162;50.912;6.918;2023-12-04T01:26:41;28.77;;;24.73;;
31596;SDS011;74162;50.912;6.918;2023-12-04T01:27:13;26.75;;;23.88;;
31596;SDS011;74162;50.912;6.918;2023-12-04T01:27:45;28.70;;;24.13;;
31596;SDS011;74162;50.912;6.918;2023-12-04T01:28:17;28.90;;;23.83;;
31596;SDS011;74162;50.912;6.918;2023-12-04T01:28:49;28.65;;;23.65;;
31596;SDS011;74162;50.912;6.918;2023-12-04T01:29:20;28.75;;;24.00;;
31596;SDS011;74162;50.912;6.918;2023-12-04T01:29:52;29.35;;;23.95;;
31596;SDS011;74162;50.912;6.918;2023-12-04T01:30:24;30.30;;;23.80;;
31596;SDS011;74162;50.912;6.918;2023-12-04T01:30:56;30.40;;;24.02;;
31596;SDS011;74162;50.912;6.918;2023-12-04T01:31:28;30.35;;;24.25;;
31596;SDS011;74162;50.912;6.918;2023-12-04T01:32:00;28.50;;;23.20;;
31596;SDS011;74162;50.912;6.918;2023-12-04T01:32:32;30.25;;;23.65;;
31596;SDS011;74162;50.912;6.918;2023-12-04T01:33:03;30.33;;;24.33;;
31596;SDS011;74162;50.912;6.918;2023-12-04T01:33:35;28.60;;;23.58;;
31596;SDS011;74162;50.912;6.918;2023-12-04T01:34:07;30.88;;;24.63;;
31596;SDS011;74162;50.912;6.918;2023-12-04T01:34:39;28.33;;;23.25;;
31596;SDS011;74162;50.912;6.918;2023-12-04T01:35:11;29.02;;;23.48;;
31596;SDS011;74162;50.912;6.918;2023-12-04T01:35:43;28.15;;;22.83;;
31596;SDS011;74162;50.912;6.918;2023-12-04T01:36:15;28.73;;;24.10;;
31596;SDS011;74162;50.912;6.918;2023-12-04T01:36:47;27.55;;;22.70;;
31596;SDS011;74162;50.912;6.918;2023-12-04T01:37:18;28.83;;;23.15;;
31596;SDS011;74162;50.912;6.918;2023-12-04T01:37:50;29.98;;;22.95;;
31596;SDS011;74162;50.912;6.918;2023-12-04T01:38:22;27.48;;;23.75;;
31596;SDS011;74162;50.912;6.918;2023-12-04T01:38:54;27.33;;;23.52;;
31596;SDS011;74162;50.912;6.918;2023-12-04T01:39:27;27.42;;;23.92;;
31596;SDS011;74162;50.912;6.918;2023-12-04T01:39:59;26.17;;;23.38;;
31596;SDS011;74162;50.912;6.918;2023-12-04T01:40:31;28.25;;;24.00;;
31596;SDS011;74162;50.912;6.918;2023-12-04T01:41:03;25.55;;;22.85;;
31596;SDS011;74162;50.912;6.918;2023-12-04T01:41:36;27.15;;;24.25;;
31596;SDS011;74162;50.912;6.918;2023-12-04T01:42:08;27.98;;;25.08;;
31596;SDS011;74162;50.912;6.918;2023-12-04T01:42:42;27.18;;;24.28;;
31596;SDS011;74162;50.912;6.918;2023-12-04T01:43:14;26.77;;;23.88;;
31596;SDS011;74162;50.912;6.918;2023-12-04T01:43:45;27.42;;;24.33;;
31596;SDS011;74162;50.912;6.918;2023-12-04T01:44:17;27.30;;;24.40;;
31596;SDS011;74162;50.912;6.918;2023-12-04T01:44:50;28.33;;;25.27;;
31596;SDS011;74162;50.912;6.918;2023-12-04T01:45:21;28.70;;;24.67;;
31596;SDS011;74162;50.912;6.918;2023-12-04T01:45:53;27.65;;;24.35;;
31596;SDS011;74162;50.912;6.918;2023-12-04T01:46:25;27.05;;;24.25;;
31596;SDS011;74162;50.912;6.918;2023-12-04T01:46:57;27.58;;;24.58;;
31596;SDS011;74162;50.912;6.918;2023-12-04T01:47:29;27.05;;;23.33;;
31596;SDS011;74162;50.912;6.918;2023-12-04T01:48:02;27.48;;;23.80;;
31596;SDS011;74162;50.912;6.918;2023-12-04T01:48:34;25.20;;;22.48;;
31596;SDS011;74162;50.912;6.918;2023-12-04T01:49:07;27.25;;;24.25;;
31596;SDS011;74162;50.912;6.918;2023-12-04T01:49:40;26.13;;;23.40;;
31596;SDS011;74162;50.912;6.918;2023-12-04T01:50:12;27.02;;;23.23;;
31596;SDS011;74162;50.912;6.918;2023-12-04T01:50:45;25.98;;;23.17;;
31596;SDS011;74162;50.912;6.918;2023-12-04T01:51:17;26.38;;;23.60;;
31596;SDS011;74162;50.912;6.918;2023-12-04T01:51:50;27.92;;;24.45;;
31596;SDS011;74162;50.912;6.918;2023-12-04T01:52:22;26.42;;;23.15;;
31596;SDS011;74162;50.912;6.918;2023-12-04T01:52:55;26.95;;;23.92;;
31596;SDS011;74162;50.912;6.918;2023-12-04T01:53:27;25.65;;;22.85;;
31596;SDS011;74162;50.912;6.918;2023-12-04T01:53:59;26.92;;;23.50;;
31596;SDS011;74162;50.912;6.918;2023-12-04T01:54:35;25.52;;;22.63;;
31596;SDS011;74162;50.912;6.918;2023-12-04T01:55:08;26.05;;;23.23;;
31596;SDS011;74162;50.912;6.918;2023-12-04T01:55:41;26.17;;;23.13;;
31596;SDS011;74162;50.912;6.918;2023-12-04T01:56:13;26.27;;;23.48;;
31596;SDS011;74162;50.912;6.918;2023-12-04T01:56:46;28.85;;;24.40;;
31596;SDS011;74162;50.912;6.918;2023-12-04T01:57:18;29.45;;;23.77;;
31596;SDS011;74162;50.912;6.918;2023-12-04T01:57:50;27.65;;;22.60;;
31596;SDS011;74162;50.912;6.918;2023-12-04T01:59:38;27.17;;;22.85;;
31596;SDS011;74162;50.912;6.918;2023-12-04T02:00:11;28.55;;;23.67;;
31596;SDS011;74162;50.912;6.918;2023-12-04T02:00:44;28.73;;;22.10;;
31596;SDS011;74162;50.912;6.918;2023-12-04T02:01:16;29.02;;;23.38;;
31596;SDS011;74162;50.912;6.918;2023-12-04T02:01:50;28.20;;;23.00;;
31596;SDS011;74162;50.912;6.918;2023-12-04T02:02:23;27.98;;;23.13;;
31596;SDS011;74162;50.912;6.918;2023-12-04T02:02:55;28.33;;;24.02;;
31596;SDS011;74162;50.912;6.918;2023-12-04T02:03:27;25.73;;;21.65;;
31596;SDS011;74162;50.912;6.918;2023-12-04T02:04:00;28.08;;;23.50;;
31596;SDS011;74162;50.912;6.918;2023-12-04T02:04:33;28.27;;;23.00;;
31596;SDS011;74162;50.912;6.918;2023-12-04T02:05:06;29.75;;;23.80;;
31596;SDS011;74162;50.912;6.918;2023-12-04T02:05:39;28.20;;;23.17;;
31596;SDS011;74162;50.912;6.918;2023-12-04T02:06:11;27.58;;;22.45;;
31596;SDS011;74162;50.912;6.918;2023-12-04T02:06:44;28.15;;;22.83;;
31596;SDS011;74162;50.912;6.918;2023-12-04T02:07:16;29.60;;;22.95;;
31596;SDS011;74162;50.912;6.918;2023-12-04T02:07:48;28.75;;;22.80;;
31596;SDS011;74162;50.912;6.918;2023-12-04T02:08:20;29.17;;;23.10;;
31596;SDS011;74162;50.912;6.918;2023-12-04T02:08:52;26.13;;;23.02;;
31596;SDS011;74162;50.912;6.918;2023-12-04T02:09:24;26.58;;;23.42;;
31596;SDS011;74162;50.912;6.918;2023-12-04T02:09:58;26.20;;;23.35;;
31596;SDS011;74162;50.912;6.918;2023-12-04T02:10:30;26.75;;;23.58;;
31596;SDS011;74162;50.912;6.918;2023-12-04T02:11:02;27.45;;;23.52;;
31596;SDS011;74162;50.912;6.918;2023-12-04T02:11:34;26.17;;;23.48;;
31596;SDS011;74162;50.912;6.918;2023-12-04T02:12:06;26.90;;;23.90;;
31596;SDS011;74162;50.912;6.918;2023-12-04T02:12:38;26.92;;;24.13;;
31596;SDS011;74162;50.912;6.918;2023-12-04T02:13:10;26.42;;;23.63;;
31596;SDS011;74162;50.912;6.918;2023-12-04T02:13:42;27.50;;;24.52;;
31596;SDS011;74162;50.912;6.918;2023-12-04T02:14:14;26.92;;;23.98;;
31596;SDS011;74162;50.912;6.918;2023-12-04T02:14:46;27.05;;;24.10;;
31596;SDS011;74162;50.912;6.918;2023-12-04T02:15:18;28.42;;;24.98;;
31596;SDS011;74162;50.912;6.918;2023-12-04T02:15:51;26.38;;;23.58;;
31596;SDS011;74162;50.912;6.918;2023-12-04T02:16:25;26.40;;;23.60;;
31596;SDS011;74162;50.912;6.918;2023-12-04T02:17:00;27.20;;;24.30;;
31596;SDS011;74162;50.912;6.918;2023-12-04T02:17:33;27.38;;;24.48;;
31596;SDS011;74162;50.912;6.918;2023-12-04T02:18:06;27.85;;;24.90;;
31596;SDS011;74162;50.912;6.918;2023-12-04T02:18:38;27.48;;;24.20;;
31596;SDS011;74162;50.912;6.918;2023-12-04T02:19:11;27.17;;;24.25;;
31596;SDS011;74162;50.912;6.918;2023-12-04T02:19:44;26.73;;;23.90;;
31596;SDS011;74162;50.912;6.918;2023-12-04T02:20:16;26.45;;;23.45;;
31596;SDS011;74162;50.912;6.918;2023-12-04T02:20:48;27.25;;;23.88;;
31596;SDS011;74162;50.912;6.918;2023-12-04T02:21:20;27.98;;;23.98;;
31596;SDS011;74162;50.912;6.918;2023-12-04T02:21:52;27.85;;;24.52;;
31596;SDS011;74162;50.912;6.918;2023-12-04T02:22:24;27.77;;;24.30;;
31596;SDS011;74162;50.912;6.918;2023-12-04T02:22:56;25.83;;;23.02;;
31596;SDS011;74162;50.912;6.918;2023-12-04T02:23:27;26.50;;;23.55;;
31596;SDS011;74162;50.912;6.918;2023-12-04T02:24:02;28.33;;;24.58;;
31596;SDS011;74162;50.912;6.918;2023-12-04T02:24:34;26.23;;;23.42;;
31596;SDS011;74162;50.912;6.918;2023-12-04T02:25:06;26.70;;;23.80;;
31596;SDS011;74162;50.912;6.918;2023-12-04T02:25:51;28.40;;;22.80;;
31596;SDS011;74162;50.912;6.918;2023-12-04T02:26:31;25.02;;;22.40;;
31596;SDS011;74162;50.912;6.918;2023-12-04T02:27:08;26.80;;;23.38;;
31596;SDS011;74162;50.912;6.918;2023-12-04T02:27:47;24.90;;;22.20;;
31596;SDS011;74162;50.912;6.918;2023-12-04T02:28:22;26.02;;;23.23;;
31596;SDS011;74162;50.912;6.918;2023-12-04T02:28:55;26.10;;;23.10;;
31596;SDS011;74162;50.912;6.918;2023-12-04T02:29:31;27.98;;;23.52;;
31596;SDS011;74162;50.912;6.918;2023-12-04T02:30:10;27.38;;;23.58;;
31596;SDS011;74162;50.912;6.918;2023-12-04T02:30:43;27.25;;;23.83;;
31596;SDS011;74162;50.912;6.918;2023-12-04T02:31:17;27.55;;;22.90;;
31596;SDS011;74162;50.912;6.918;2023-12-04T02:31:50;26.55;;;22.02;;
31596;SDS011;74162;50.912;6.918;2023-12-04T02:32:22;26.75;;;22.98;;
31596;SDS011;74162;50.912;6.918;2023-12-04T02:32:56;27.95;;;22.83;;
31596;SDS011;74162;50.912;6.918;2023-12-04T02:33:29;28.75;;;23.00;;
31596;SDS011;74162;50.912;6.918;2023-12-04T02:34:05;26.20;;;21.67;;
31596;SDS011;74162;50.912;6.918;2023-12-04T02:34:38;28.67;;;22.33;;
31596;SDS011;74162;50.912;6.918;2023-12-04T02:35:13;28.88;;;23.85;;
31596;SDS011;74162;50.912;6.918;2023-12-04T02:35:55;27.33;;;22.23;;
31596;SDS011;74162;50.912;6.918;2023-12-04T02:36:29;27.50;;;22.80;;
31596;SDS011;74162;50.912;6.918;2023-12-04T02:37:03;26.60;;;21.85;;
31596;SDS011;74162;50.912;6.918;2023-12-04T02:37:37;27.83;;;22.50;;
31596;SDS011;74162;50.912;6.918;2023-12-04T02:38:10;25.80;;;22.05;;
31596;SDS011;74162;50.912;6.918;2023-12-04T02:38:43;28.27;;;22.80;;
31596;SDS011;74162;50.912;6.918;2023-12-04T02:39:17;26.27;;;22.13;;
31596;SDS011;74162;50.912;6.918;2023-12-04T02:39:49;25.35;;;21.90;;
31596;SDS011;74162;50.912;6.918;2023-12-04T02:40:21;26.67;;;21.60;;
31596;SDS011;74162;50.912;6.918;2023-12-04T02:40:54;26.95;;;22.58;;
31596;SDS011;74162;50.912;6.918;2023-12-04T02:41:26;25.58;;;22.42;;
31596;SDS011;74162;50.912;6.918;2023-12-04T02:41:58;24.55;;;21.65;;
31596;SDS011;74162;50.912;6.918;2023-12-04T02:42:30;25.88;;;22.33;;
31596;SDS011;74162;50.912;6.918;2023-12-04T02:43:02;25.60;;;22.17;;
31596;SDS011;74162;50.912;6.918;2023-12-04T02:43:34;25.00;;;22.15;;
31596;SDS011;74162;50.912;6.918;2023-12-04T02:44:06;25.27;;;22.55;;
31596;SDS011;74162;50.912;6.918;2023-12-04T02:44:38;26.15;;;23.30;;
31596;SDS011;74162;50.912;6.918;2023-12-04T02:45:09;26.48;;;22.38;;
31596;SDS011;74162;50.912;6.918;2023-12-04T02:45:41;25.15;;;22.35;;
31596;SDS011;74162;50.912;6.918;2023-12-04T02:46:13;24.83;;;22.13;;
31596;SDS011;74162;50.912;6.918;2023-12-04T02:46:45;24.70;;;22.15;;
31596;SDS011;74162;50.912;6.918;2023-12-04T02:47:18;26.00;;;23.17;;
31596;SDS011;74162;50.912;6.918;2023-12-04T02:47:50;24.25;;;21.58;;
31596;SDS011;74162;50.912;6.918;2023-12-04T02:48:22;25.38;;;22.55;;
31596;SDS011;74162;50.912;6.918;2023-12-04T02:48:54;24.80;;;22.13;;
31596;SDS011;74162;50.912;6.918;2023-12-04T02:49:26;24.80;;;21.70;;
31596;SDS011;74162;50.912;6.918;2023-12-04T02:49:58;25.38;;;22.55;;
31596;SDS011;74162;50.912;6.918;2023-12-04T02:50:30;24.67;;;21.98;;
31596;SDS011;74162;50.912;6.918;2023-12-04T02:51:02;25.38;;;22.13;;
31596;SDS011;74162;50.912;6.918;2023-12-04T02:56:10;24.32;;;21.72;;
31596;SDS011;74162;50.912;6.918;2023-12-04T02:56:42;23.98;;;21.27;;
31596;SDS011;74162;50.912;6.918;2023-12-04T02:57:14;23.70;;;21.10;;
31596;SDS011;74162;50.912;6.918;2023-12-04T02:57:46;23.55;;;20.42;;
31596;SDS011;74162;50.912;6.918;2023-12-04T02:58:18;23.92;;;21.30;;
31596;SDS011;74162;50.912;6.918;2023-12-04T02:58:50;23.45;;;20.80;;
31596;SDS011;74162;50.912;6.918;2023-12-04T02:59:22;24.35;;;21.63;;
31596;SDS011;74162;50.912;6.918;2023-12-04T02:59:53;24.15;;;21.10;;
31596;SDS011;74162;50.912;6.918;2023-12-04T03:00:26;22.85;;;20.52;;
31596;SDS011;74162;50.912;6.918;2023-12-04T03:00:58;25.13;;;21.90;;
31596;SDS011;74162;50.912;6.918;2023-12-04T03:01:30;26.13;;;21.15;;
31596;SDS011;74162;50.912;6.918;2023-12-04T03:02:02;24.95;;;21.52;;
31596;SDS011;74162;50.912;6.918;2023-12-04T03:02:34;25.60;;;20.35;;
31596;SDS011;74162;50.912;6.918;2023-12-04T03:03:06;24.92;;;20.42;;
31596;SDS011;74162;50.912;6.918;2023-12-04T03:03:38;24.10;;;20.25;;
31596;SDS011;74162;50.912;6.918;2023-12-04T03:04:10;24.10;;;20.05;;
31596;SDS011;74162;50.912;6.918;2023-12-04T03:04:42;25.95;;;20.65;;
31596;SDS011;74162;50.912;6.918;2023-12-04T03:05:14;26.73;;;20.90;;
31596;SDS011;74162;50.912;6.918;2023-12-04T03:05:46;25.10;;;20.92;;
31596;SDS011;74162;50.912;6.918;2023-12-04T03:06:17;24.63;;;21.33;;
31596;SDS011;74162;50.912;6.918;2023-12-04T03:06:49;24.52;;;19.88;;
31596;SDS011;74162;50.912;6.918;2023-12-04T03:07:21;23.80;;;20.00;;
31596;SDS011;74162;50.912;6.918;2023-12-04T03:07:53;25.17;;;20.17;;
31596;SDS011;74162;50.912;6.918;2023-12-04T03:08:25;24.50;;;20.52;;
31596;SDS011;74162;50.912;6.918;2023-12-04T03:08:57;26.13;;;21.05;;
31596;SDS011;74162;50.912;6.918;2023-12-04T03:09:29;23.50;;;20.00;;
31596;SDS011;74162;50.912;6.918;2023-12-04T03:10:19;22.88;;;19.30;;
31596;SDS011;74162;50.912;6.918;2023-12-04T03:10:53;24.63;;;20.13;;
31596;SDS011;74162;50.912;6.918;2023-12-04T03:11:25;24.92;;;20.50;;
31596;SDS011;74162;50.912;6.918;2023-12-04T03:11:57;24.65;;;20.77;;
31596;SDS011;74162;50.912;6.918;2023-12-04T03:12:29;23.23;;;20.45;;
31596;SDS011;74162;50.912;6.918;2023-12-04T03:13:01;23.00;;;20.45;;
31596;SDS011;74162;50.912;6.918;2023-12-04T03:13:33;23.38;;;20.40;;
31596;SDS011;74162;50.912;6.918;2023-12-04T03:14:05;24.27;;;21.23;;
31596;SDS011;74162;50.912;6.918;2023-12-04T03:14:37;24.13;;;21.60;;
31596;SDS011;74162;50.912;6.918;2023-12-04T03:15:09;23.45;;;20.48;;
31596;SDS011;74162;50.912;6.918;2023-12-04T03:15:41;23.17;;;20.65;;
31596;SDS011;74162;50.912;6.918;2023-12-04T03:16:16;22.80;;;20.38;;
31596;SDS011;74162;50.912;6.918;2023-12-04T03:16:49;22.70;;;20.42;;
31596;SDS011;74162;50.912;6.918;2023-12-04T03:17:21;24.10;;;21.60;;
31596;SDS011;74162;50.912;6.918;2023-12-04T03:17:53;23.77;;;20.75;;
31596;SDS011;74162;50.912;6.918;2023-12-04T03:18:25;23.70;;;20.92;;
31596;SDS011;74162;50.912;6.918;2023-12-04T03:18:57;23.65;;;21.13;;
31596;SDS011;74162;50.912;6.918;2023-12-04T03:19:30;23.08;;;20.65;;
31596;SDS011;74162;50.912;6.918;2023-12-04T03:20:02;23.35;;;20.85;;
31596;SDS011;74162;50.912;6.918;2023-12-04T03:20:34;24.27;;;21.48;;
31596;SDS011;74162;50.912;6.918;2023-12-04T03:21:06;23.65;;;20.95;;
31596;SDS011;74162;50.912;6.918;2023-12-04T03:21:38;22.80;;;20.40;;
31596;SDS011;74162;50.912;6.918;2023-12-04T03:22:11;23.02;;;20.58;;
31596;SDS011;74162;50.912;6.918;2023-12-04T03:22:43;22.83;;;20.40;;
31596;SDS011;74162;50.912;6.918;2023-12-04T03:23:15;22.88;;;20.48;;
31596;SDS011;74162;50.912;6.918;2023-12-04T03:23:47;23.98;;;21.30;;
31596;SDS011;74162;50.912;6.918;2023-12-04T03:24:19;23.33;;;20.73;;